Time;durP1;ratioP1;P1;durP2;ratioP2;P2;SDS_P1;SDS_P2;PMS_P1;PMS_P2;Temp;Humidity;BMP_temperature;BMP_pressure;BME280_temperature;BME280_humidity;BME280_pressure;Samples;Min_cycle;Max_cycle;Signal;HPM_P1;HPM_P2
2023/02/02 05:19:28;;;;;;;11.45;4.50;;;;;;;-2.66;75.04;101203.33;1901788;75;21093;-44
2023/02/02 05:21:57;;;;;;;8.95;4.55;;;;;;;-2.63;74.99;101207.28;1902672;75;21050;-45
2023/02/02 05:24:26;;;;;;;10.95;4.37;;;;;;;-2.54;74.92;101202.33;1902691;75;21041;-46
2023/02/02 05:26:59;;;;;;;9.90;4.10;;;;;;;-2.38;74.75;101212.14;1902799;75;21042;-49
2023/02/02 05:29:25;;;;;;;6.55;3.58;;;;;;;-2.33;74.79;101208.35;1902554;75;21108;-47
2023/02/02 05:44:27;;;;;;;16.50;5.70;;;;;;;-1.06;74.60;101221.91;1960296;72;28029;-58
2023/02/02 05:46:55;;;;;;;21.23;6.70;;;;;;;-0.80;74.06;101223.61;1919529;75;21043;-59
2023/02/02 05:49:25;;;;;;;18.12;6.50;;;;;;;-0.63;73.56;101216.99;1919484;75;21454;-59
2023/02/02 05:51:57;;;;;;;20.00;6.85;;;;;;;-0.49;73.05;101219.76;1918905;74;21035;-59
2023/02/02 05:54:26;;;;;;;14.38;6.40;;;;;;;-0.45;72.37;101220.23;1919670;75;21399;-59
2023/02/02 05:56:55;;;;;;;9.00;5.25;;;;;;;-0.52;72.28;101213.23;1919510;75;21027;-60
2023/02/02 05:59:24;;;;;;;18.82;7.30;;;;;;;-0.52;72.03;101222.30;1919774;74;21053;-60
2023/02/02 06:01:53;;;;;;;16.23;6.67;;;;;;;-0.50;72.00;101220.63;1919748;75;21073;-60
2023/02/02 06:04:22;;;;;;;10.78;5.37;;;;;;;-0.35;71.93;101221.66;1919573;75;21141;-59
2023/02/02 06:06:50;;;;;;;12.82;5.03;;;;;;;-0.25;71.59;101220.52;1919608;75;21022;-60
2023/02/02 06:09:22;;;;;;;21.40;5.97;;;;;;;-0.14;71.35;101213.32;1919472;75;21024;-60
2023/02/02 06:11:50;;;;;;;11.05;5.47;;;;;;;-0.03;71.12;101219.50;1919597;74;21044;-58
2023/02/02 06:14:19;;;;;;;8.20;3.35;;;;;;;0.04;70.86;101224.30;1919548;75;21532;-59
2023/02/02 06:16:48;;;;;;;6.25;2.77;;;;;;;0.01;70.67;101233.35;1919432;75;21137;-58
2023/02/02 06:19:16;;;;;;;11.08;3.83;;;;;;;0.01;70.52;101240.69;1919689;74;21537;-57
2023/02/02 06:21:45;;;;;;;5.30;2.58;;;;;;;0.08;70.38;101236.46;1919608;75;21015;-57
2023/02/02 06:24:15;;;;;;;12.43;3.55;;;;;;;0.25;70.52;101238.81;1919465;75;21023;-63
2023/02/02 06:26:43;;;;;;;5.28;3.52;;;;;;;0.51;70.49;101240.81;1919567;75;21117;-60
2023/02/02 06:29:13;;;;;;;13.45;4.03;;;;;;;0.85;70.37;101238.53;1919369;73;21125;-58
2023/02/02 06:31:42;;;;;;;16.37;4.85;;;;;;;1.19;70.05;101238.83;1919641;75;21470;-60
2023/02/02 06:34:14;;;;;;;10.82;4.85;;;;;;;1.52;69.34;101234.30;1919648;75;21108;-61
2023/02/02 06:36:43;;;;;;;9.23;4.17;;;;;;;2.06;68.58;101235.86;1919565;74;21039;-60
2023/02/02 06:39:11;;;;;;;18.75;5.37;;;;;;;2.48;68.05;101235.12;1919459;75;20996;-56
2023/02/02 06:41:40;;;;;;;15.50;4.83;;;;;;;2.66;67.41;101239.94;1919437;75;21007;-57
2023/02/02 06:44:09;;;;;;;11.97;4.65;;;;;;;2.82;67.17;101235.59;1919181;74;21114;-56
2023/02/02 06:46:38;;;;;;;12.90;4.92;;;;;;;3.09;66.89;101236.05;1919014;75;21134;-62
2023/02/02 06:49:06;;;;;;;10.95;4.85;;;;;;;3.58;66.83;101232.09;1918934;75;21035;-61
2023/02/02 06:51:35;;;;;;;14.85;4.15;;;;;;;4.26;66.47;101224.03;1918849;75;21537;-60
2023/02/02 06:54:04;;;;;;;13.80;5.42;;;;;;;5.01;65.90;101223.49;1918692;73;21101;-62
2023/02/02 06:56:33;;;;;;;17.98;4.72;;;;;;;5.54;65.49;101227.80;1918825;74;21117;-53
2023/02/02 06:59:01;;;;;;;6.28;3.00;;;;;;;5.94;64.93;101229.12;1918855;75;21128;-56
2023/02/02 07:01:31;;;;;;;5.50;2.67;;;;;;;6.11;64.60;101223.25;1918975;74;21097;-57
2023/02/02 07:04:01;;;;;;;8.40;3.30;;;;;;;6.22;64.21;101227.05;1918832;75;21043;-57
2023/02/02 07:06:31;;;;;;;12.03;3.33;;;;;;;6.04;63.22;101233.37;1918214;74;21047;-61
2023/02/02 07:09:01;;;;;;;13.22;4.83;;;;;;;5.98;62.56;101228.22;1918880;75;21181;-62
2023/02/02 07:11:30;;;;;;;8.95;3.62;;;;;;;5.93;62.57;101219.08;1918911;75;21125;-62
2023/02/02 07:14:00;;;;;;;8.38;4.20;;;;;;;5.98;62.40;101216.45;1918838;75;21091;-58
2023/02/02 07:16:29;;;;;;;15.10;5.70;;;;;;;6.03;62.21;101226.42;1918940;74;21043;-59
2023/02/02 07:18:58;;;;;;;16.77;7.12;;;;;;;6.05;62.66;101224.66;1918896;75;21070;-56
2023/02/02 07:21:34;;;;;;;15.32;7.50;;;;;;;6.15;62.73;101223.63;1918773;75;21000;-61
2023/02/02 07:24:01;;;;;;;17.45;7.53;;;;;;;6.46;62.18;101227.60;1918869;74;21035;-59
2023/02/02 07:26:30;;;;;;;12.58;7.50;;;;;;;6.83;61.65;101226.59;1918809;75;21148;-62
2023/02/02 07:28:58;;;;;;;15.03;6.90;;;;;;;7.26;61.28;101226.33;1919030;75;21163;-66
2023/02/02 07:31:28;;;;;;;13.62;6.65;;;;;;;7.88;60.67;101226.05;1918946;75;21093;-61
2023/02/02 07:33:56;;;;;;;16.35;5.62;;;;;;;8.52;59.84;101230.84;1918772;75;21100;-62
2023/02/02 07:36:25;;;;;;;13.75;6.22;;;;;;;9.17;58.99;101231.03;1918824;75;21104;-61
2023/02/02 07:38:56;;;;;;;17.27;6.67;;;;;;;9.51;58.01;101232.77;1918916;75;21142;-63
2023/02/02 07:41:28;;;;;;;11.53;5.25;;;;;;;9.74;57.40;101232.59;1918898;75;21466;-55
2023/02/02 07:43:56;;;;;;;15.58;6.17;;;;;;;10.09;56.63;101238.19;1918841;74;21442;-57
2023/02/02 07:46:25;;;;;;;12.30;5.10;;;;;;;10.53;55.87;101236.46;1918711;75;21111;-60
2023/02/02 07:48:56;;;;;;;6.37;3.02;;;;;;;11.08;55.15;101237.33;1918922;75;21031;-59
2023/02/02 07:51:26;;;;;;;7.50;4.00;;;;;;;11.46;53.78;101233.86;1918832;75;20999;-60
2023/02/02 07:53:57;;;;;;;6.17;2.80;;;;;;;11.88;53.13;101230.61;1919009;75;21028;-60
2023/02/02 07:56:27;;;;;;;5.12;2.80;;;;;;;12.28;52.67;101231.80;1918760;75;21121;-60
2023/02/02 07:58:57;;;;;;;7.70;3.05;;;;;;;12.50;51.98;101231.80;1918742;75;21015;-57
2023/02/02 08:01:27;;;;;;;12.85;5.25;;;;;;;13.06;51.39;101222.52;1918923;75;21442;-56
2023/02/02 08:03:59;;;;;;;13.93;6.72;;;;;;;13.39;51.15;101222.05;1918825;74;21036;-56
2023/02/02 08:06:30;;;;;;;10.18;4.60;;;;;;;13.12;50.93;101219.60;1918813;75;21031;-58
2023/02/02 08:09:00;;;;;;;9.30;3.80;;;;;;;13.20;49.83;101216.63;1918799;73;21011;-62
2023/02/02 08:11:29;;;;;;;8.93;3.35;;;;;;;13.51;49.02;101210.06;1918980;74;21011;-62
2023/02/02 08:14:01;;;;;;;8.13;3.25;;;;;;;13.75;48.30;101214.73;1918992;75;21015;-62
2023/02/02 08:16:31;;;;;;;13.95;5.37;;;;;;;13.98;47.58;101215.03;1918904;75;21067;-61
2023/02/02 08:19:00;;;;;;;13.08;4.83;;;;;;;14.07;47.28;101215.05;1918869;75;21473;-61
2023/02/02 08:21:31;;;;;;;14.63;5.33;;;;;;;13.89;46.84;101214.97;1918821;75;21052;-61
2023/02/02 08:24:01;;;;;;;17.73;5.97;;;;;;;13.92;46.83;101214.44;1918749;75;21426;-60
2023/02/02 08:26:31;;;;;;;17.62;8.65;;;;;;;14.13;46.49;101224.05;1918802;75;21158;-54
2023/02/02 08:29:05;;;;;;;27.82;8.15;;;;;;;14.15;45.99;101223.52;1918930;75;21105;-54
2023/02/02 08:31:36;;;;;;;26.23;7.95;;;;;;;14.31;45.17;101221.47;1918901;75;21023;-54
2023/02/02 08:34:05;;;;;;;15.88;7.35;;;;;;;14.47;44.88;101219.81;1918687;75;20992;-55
2023/02/02 08:36:37;;;;;;;23.98;9.55;;;;;;;14.57;44.41;101221.13;1918857;75;21074;-54
2023/02/02 08:39:08;;;;;;;24.43;8.55;;;;;;;14.69;43.90;101213.05;1918893;75;21003;-61
2023/02/02 08:41:39;;;;;;;18.23;8.63;;;;;;;14.82;43.14;101214.16;1918810;75;21027;-64
2023/02/02 08:44:10;;;;;;;14.33;7.55;;;;;;;15.12;43.03;101217.53;1918796;74;21097;-59
2023/02/02 08:46:39;;;;;;;18.82;7.65;;;;;;;15.29;42.53;101212.72;1918551;74;21469;-60
2023/02/02 08:49:13;;;;;;;17.82;6.78;;;;;;;15.61;42.34;101211.51;1918865;75;21522;-57
2023/02/02 08:51:40;;;;;;;;;;;;;;;15.94;41.66;101203.57;1921601;75;21071;-55
2023/02/02 08:54:09;;;;;;;16.70;6.58;;;;;;;16.41;41.44;101204.53;1918755;75;20116;-61
2023/02/02 08:56:38;;;;;;;18.35;7.80;;;;;;;17.07;41.17;101189.29;1918889;75;21478;-61
2023/02/02 08:59:06;;;;;;;13.62;6.90;;;;;;;17.29;40.46;101188.38;1918750;75;21101;-52
2023/02/02 09:01:35;;;;;;;16.90;7.55;;;;;;;17.56;40.21;101193.84;1918809;75;21110;-55
2023/02/02 09:04:07;;;;;;;17.48;7.33;;;;;;;17.51;39.41;101192.41;1918771;75;21039;-55
2023/02/02 09:06:39;;;;;;;18.35;7.80;;;;;;;17.64;39.18;101189.37;1918720;74;21027;-60
2023/02/02 09:09:10;;;;;;;11.77;6.80;;;;;;;17.91;38.79;101186.84;1918501;74;21109;-60
2023/02/02 09:11:40;;;;;;;16.02;7.08;;;;;;;18.46;38.68;101189.58;1918697;75;21481;-64
2023/02/02 09:14:10;;;;;;;14.30;8.38;;;;;;;18.80;38.26;101178.89;1918825;75;21086;-61
2023/02/02 09:16:39;;;;;;;14.70;6.97;;;;;;;18.63;37.26;101177.84;1918813;75;21544;-60
2023/02/02 09:19:08;;;;;;;14.28;6.62;;;;;;;18.21;37.83;101171.67;1918768;75;21047;-61
2023/02/02 09:21:36;;;;;;;13.13;5.83;;;;;;;17.89;37.88;101171.89;1918754;75;21106;-60
2023/02/02 09:24:10;;;;;;;15.25;6.92;;;;;;;18.26;37.25;101170.88;1918931;75;21125;-61
2023/02/02 09:26:40;;;;;;;17.48;6.20;;;;;;;18.67;36.65;101176.67;1918737;75;21008;-61
2023/02/02 09:29:12;;;;;;;14.65;6.45;;;;;;;19.11;35.77;101166.19;1918848;75;21047;-61
2023/02/02 09:31:42;;;;;;;12.10;5.70;;;;;;;19.27;35.53;101166.85;1918144;74;21050;-61
2023/02/02 09:34:13;;;;;;;13.60;7.20;;;;;;;19.28;35.22;101167.20;1918718;75;21079;-60
2023/02/02 09:36:43;;;;;;;16.37;6.50;;;;;;;19.27;35.22;101161.52;1918674;75;21039;-61
2023/02/02 09:39:13;;;;;;;8.70;4.80;;;;;;;19.27;34.68;101159.30;1918828;75;21047;-60
2023/02/02 09:41:50;;;;;;;8.70;3.85;;;;;;;19.25;34.75;101155.39;1918716;75;21063;-61
2023/02/02 09:44:57;;;;;;;9.43;3.40;;;;;;;19.28;34.40;101149.85;1918751;75;21035;-60
2023/02/02 09:47:38;;;;;;;8.80;4.92;;;;;;;19.45;34.16;101146.49;1877899;76;21050;-60
2023/02/02 09:50:09;;;;;;;9.35;3.98;;;;;;;19.60;33.93;101136.05;1849576;76;21042;-61
2023/02/02 09:52:47;;;;;;;14.63;6.67;;;;;;;20.08;33.53;101136.69;1876998;76;21035;-61
2023/02/02 09:55:21;;;;;;;10.35;5.28;;;;;;;20.36;33.30;101132.86;1879077;76;21083;-60
2023/02/02 09:57:53;;;;;;;15.18;5.35;;;;;;;19.53;33.91;101138.81;1876566;76;21098;-57
2023/02/02 10:00:33;;;;;;;10.63;6.25;;;;;;;17.58;36.07;101141.84;1878991;76;21082;-59
2023/02/02 10:03:08;;;;;;;9.05;5.25;;;;;;;15.73;37.94;101145.83;1877540;76;21047;-56
2023/02/02 10:05:46;;;;;;;11.63;5.35;;;;;;;14.65;39.54;101144.75;1878208;76;21027;-58
2023/02/02 10:08:20;;;;;;;16.12;6.22;;;;;;;13.86;40.59;101147.61;1878469;76;21082;-55
2023/02/02 10:10:51;;;;;;;9.45;4.47;;;;;;;14.15;40.73;101141.42;1877530;76;21109;-56
2023/02/02 10:13:23;;;;;;;13.20;5.20;;;;;;;15.62;38.82;101131.80;1879091;76;21062;-61
2023/02/02 10:16:10;;;;;;;9.35;4.95;;;;;;;17.00;37.01;101126.75;1878599;76;21090;-56
2023/02/02 10:18:53;;;;;;;11.93;3.95;;;;;;;16.07;37.95;101125.41;1878184;76;21039;-58
2023/02/02 10:21:24;;;;;;;7.37;3.00;;;;;;;15.21;38.95;101122.05;1812881;76;21524;-56
2023/02/02 10:23:53;;;;;;;8.35;4.08;;;;;;;16.76;36.82;101112.59;1878744;76;21453;-56
2023/02/02 10:26:40;;;;;;;7.50;3.25;;;;;;;17.88;35.29;101114.25;1879069;76;21513;-61
2023/02/02 10:29:15;;;;;;;6.97;2.87;;;;;;;18.46;34.87;101113.14;1878948;76;21039;-62
2023/02/02 10:32:03;;;;;;;7.97;3.77;;;;;;;19.12;34.08;101114.50;1879113;76;21128;-55
2023/02/02 10:34:42;;;;;;;6.08;2.87;;;;;;;19.33;33.75;101108.63;1879073;76;21043;-57
2023/02/02 10:37:16;;;;;;;8.95;4.05;;;;;;;18.59;34.51;101111.84;1879085;76;21500;-57
2023/02/02 10:40:06;;;;;;;9.93;4.25;;;;;;;16.78;36.31;101104.05;1878204;76;21035;-55
2023/02/02 10:42:44;;;;;;;15.53;6.40;;;;;;;15.59;37.85;101109.39;1879033;76;21547;-58
2023/02/02 10:45:16;;;;;;;6.47;3.33;;;;;;;15.41;38.59;101107.25;1879205;76;21531;-57
2023/02/02 10:47:45;;;;;;;6.62;3.17;;;;;;;14.82;39.33;101110.77;1902914;74;21510;-58
2023/02/02 10:50:18;;;;;;;5.80;2.40;;;;;;;14.29;39.96;101114.25;1906461;75;21110;-58
2023/02/02 10:52:55;;;;;;;5.70;2.72;;;;;;;13.59;40.35;101111.34;1906732;75;21000;-58
2023/02/02 10:55:40;;;;;;;10.85;3.00;;;;;;;13.09;41.20;101111.33;1906174;74;21486;-55
2023/02/02 10:58:14;;;;;;;11.97;2.85;;;;;;;12.79;41.84;101110.88;1906340;75;21498;-54
2023/02/02 11:00:52;;;;;;;6.92;2.75;;;;;;;12.51;42.25;101116.46;1906450;75;21102;-54
2023/02/02 11:03:23;;;;;;;7.15;2.92;;;;;;;12.14;42.74;101113.98;1906459;75;21110;-54
2023/02/02 11:08:44;;;;;;;4.67;2.27;;;;;;;11.44;43.63;101119.67;1906487;74;21146;-56
2023/02/02 11:11:24;;;;;;;6.72;2.55;;;;;;;11.22;44.08;101114.31;1906484;74;21102;-56
2023/02/02 11:13:59;;;;;;;4.95;2.50;;;;;;;10.95;44.43;101118.77;1906693;75;21106;-57
2023/02/02 11:16:30;;;;;;;5.85;3.10;;;;;;;10.74;44.74;101122.54;1906582;75;21482;-56
2023/02/02 11:19:01;;;;;;;7.08;2.52;;;;;;;10.52;45.33;101122.86;1906343;75;21093;-56
2023/02/02 11:21:36;;;;;;;7.15;2.58;;;;;;;10.30;45.71;101131.41;1904119;74;21040;-62
2023/02/02 11:24:07;;;;;;;6.33;2.95;;;;;;;10.12;46.04;101135.45;1906506;75;21028;-62
2023/02/02 11:27:05;;;;;;;9.15;3.83;;;;;;;9.68;46.72;101139.42;1906562;75;21032;-57
2023/02/02 11:29:40;;;;;;;12.80;4.65;;;;;;;9.23;47.44;101149.41;1906517;75;21040;-57
2023/02/02 11:32:29;;;;;;;11.75;5.30;;;;;;;8.81;48.11;101146.99;1906549;75;21470;-57
2023/02/02 11:35:17;;;;;;;13.25;5.05;;;;;;;8.44;48.81;101155.77;1906440;75;21117;-57
2023/02/02 11:38:01;;;;;;;6.97;2.58;;;;;;;8.16;49.49;101170.39;1906568;75;21012;-59
2023/02/02 11:40:32;;;;;;;14.18;4.87;;;;;;;7.94;50.05;101174.78;1906162;74;21036;-58
2023/02/02 11:43:04;;;;;;;14.90;5.17;;;;;;;7.64;50.34;101171.90;1906572;75;21055;-58
2023/02/02 11:45:42;;;;;;;10.63;5.00;;;;;;;7.53;50.68;101183.05;1906672;74;21530;-60
2023/02/02 11:48:23;;;;;;;9.20;4.72;;;;;;;7.43;51.02;101190.65;1906435;75;21141;-51
2023/02/02 11:50:57;;;;;;;14.63;5.35;;;;;;;7.43;51.06;101191.95;1906568;75;21163;-53
2023/02/02 11:53:43;;;;;;;12.60;5.40;;;;;;;7.47;51.16;101193.63;1906540;75;21032;-55
2023/02/02 11:56:21;;;;;;;10.88;4.47;;;;;;;7.47;51.21;101198.44;1906510;75;21071;-57
2023/02/02 11:58:55;;;;;;;16.62;5.00;;;;;;;7.46;51.40;101203.70;1906414;75;21036;-58
2023/02/02 12:01:26;;;;;;;10.98;4.87;;;;;;;7.37;51.75;101202.56;1906413;74;21126;-58
2023/02/02 12:04:03;;;;;;;10.50;4.97;;;;;;;7.36;51.92;101201.70;1906585;75;21027;-59
2023/02/02 12:06:38;;;;;;;12.95;4.75;;;;;;;7.28;52.16;101202.27;1906433;75;21075;-56
2023/02/02 12:09:15;;;;;;;13.50;5.30;;;;;;;7.19;52.48;101208.53;1906393;75;21031;-56
2023/02/02 12:12:02;;;;;;;5.30;3.50;;;;;;;7.05;52.95;101217.09;1906518;75;21536;-50
2023/02/02 12:14:53;;;;;;;13.53;5.92;;;;;;;6.98;53.31;101215.47;1906821;74;21036;-49
2023/02/02 12:17:43;;;;;;;11.65;5.22;;;;;;;6.79;53.82;101218.38;1906019;74;21028;-54
2023/02/02 12:20:33;;;;;;;12.75;5.65;;;;;;;6.85;53.84;101216.96;1906252;74;21028;-59
2023/02/02 12:23:17;;;;;;;11.95;5.00;;;;;;;6.84;54.06;101217.87;1907029;74;21595;-61
2023/02/02 12:26:01;;;;;;;8.05;3.62;;;;;;;6.90;54.07;101221.69;1894811;75;21574;-59
2023/02/02 12:28:52;;;;;;;15.03;6.10;;;;;;;7.01;53.90;101221.52;1906563;75;21106;-58
2023/02/02 12:31:46;;;;;;;11.12;4.90;;;;;;;7.05;53.84;101233.66;1906516;75;21395;-59
2023/02/02 12:34:24;;;;;;;10.25;5.10;;;;;;;6.95;54.12;101230.34;1906501;75;21055;-58
2023/02/02 12:37:07;;;;;;;19.20;6.50;;;;;;;7.05;54.11;101238.90;1907059;74;21097;-58
2023/02/02 12:39:51;;;;;;;13.25;5.60;;;;;;;7.11;54.13;101237.48;1907220;74;21471;-58
2023/02/02 12:42:40;;;;;;;11.85;4.92;;;;;;;7.15;54.23;101237.84;1906230;74;21028;-59
2023/02/02 12:45:40;;;;;;;13.72;5.55;;;;;;;7.15;54.44;101235.67;1906678;74;21024;-60
2023/02/02 12:48:13;;;;;;;11.75;5.03;;;;;;;7.16;54.51;101240.03;1905466;74;21067;-59
2023/02/02 12:51:00;;;;;;;13.20;5.72;;;;;;;7.13;54.94;101242.70;1906653;74;21083;-58
2023/02/02 12:53:52;;;;;;;14.68;5.20;;;;;;;7.21;54.86;101243.45;1906507;75;21102;-59
2023/02/02 12:56:24;;;;;;;11.85;5.60;;;;;;;7.12;55.10;101248.39;1859398;77;21055;-62
2023/02/02 12:59:01;;;;;;;15.35;6.20;;;;;;;7.12;55.19;101247.53;1859262;76;21127;-60
2023/02/02 13:02:09;;;;;;;14.87;5.33;;;;;;;7.17;55.25;101255.30;1879539;74;21114;-61
2023/02/02 13:04:58;;;;;;;13.95;5.47;;;;;;;7.24;55.19;101247.30;1906374;75;21080;-59
2023/02/02 13:07:33;;;;;;;12.68;5.78;;;;;;;7.13;55.48;101246.63;1906667;74;21099;-59
2023/02/02 13:10:07;;;;;;;15.75;5.28;;;;;;;7.15;55.61;101247.45;1892607;74;21118;-57
2023/02/02 13:12:39;;;;;;;17.20;5.47;;;;;;;7.20;55.54;101252.63;1921259;74;21036;-56
2023/02/02 13:15:11;;;;;;;10.98;4.78;;;;;;;7.24;55.53;101255.16;1906199;74;21032;-60
2023/02/02 13:17:45;;;;;;;14.43;5.17;;;;;;;7.28;55.44;101254.21;1906269;74;21559;-58
2023/02/02 13:20:41;;;;;;;11.48;5.42;;;;;;;7.29;55.44;101254.64;1906178;74;21524;-59
2023/02/02 13:23:30;;;;;;;11.57;4.83;;;;;;;7.33;55.44;101252.38;1906498;75;21101;-58
2023/02/02 13:26:08;;;;;;;12.75;4.95;;;;;;;7.30;55.68;101255.50;1894418;74;21129;-59
2023/02/02 13:29:10;;;;;;;15.20;5.50;;;;;;;7.21;55.96;101260.89;1906338;74;21105;-59
2023/02/02 13:31:47;;;;;;;22.22;4.60;;;;;;;7.18;55.96;101257.89;1857254;74;21052;-60
2023/02/02 13:34:24;;;;;;;19.10;5.40;;;;;;;7.16;55.96;101255.75;1906454;74;21004;-60
2023/02/02 13:36:56;;;;;;;17.67;5.08;;;;;;;7.12;56.07;101256.24;1906355;74;21579;-60
2023/02/02 13:39:30;;;;;;;21.85;6.28;;;;;;;7.03;56.26;101252.92;1906014;74;21106;-59
2023/02/02 13:42:02;;;;;;;22.93;5.47;;;;;;;6.94;56.50;101254.78;1906560;74;21494;-58
2023/02/02 13:44:34;;;;;;;12.25;4.00;;;;;;;6.99;56.39;101253.41;1906355;75;21102;-59
2023/02/02 13:47:12;;;;;;;8.63;4.00;;;;;;;7.03;56.43;101255.53;1906269;74;21148;-59
2023/02/02 13:49:46;;;;;;;10.63;3.58;;;;;;;7.00;56.55;101263.43;1906126;74;21141;-59
2023/02/02 13:52:41;;;;;;;8.73;4.33;;;;;;;7.01;56.52;101264.72;1906551;74;21110;-59
2023/02/02 13:55:32;;;;;;;11.25;4.72;;;;;;;6.93;56.75;101268.77;1906290;74;21486;-60
2023/02/02 13:58:31;;;;;;;13.18;4.83;;;;;;;6.82;57.04;101271.11;1906416;74;21028;-59
2023/02/02 14:01:09;;;;;;;8.25;4.05;;;;;;;6.65;57.19;101262.20;1906509;75;21479;-59
2023/02/02 14:03:46;;;;;;;13.72;5.05;;;;;;;6.54;57.53;101263.20;1906337;74;21536;-59
2023/02/02 14:06:17;;;;;;;8.75;4.40;;;;;;;6.46;57.73;101262.47;1906172;74;21028;-59
2023/02/02 14:09:04;;;;;;;12.82;4.67;;;;;;;6.42;57.74;101268.63;1906465;75;21032;-59
2023/02/02 14:11:36;;;;;;;8.08;3.90;;;;;;;6.40;57.65;101267.80;1906588;75;21579;-59
2023/02/02 14:14:32;;;;;;;16.17;5.15;;;;;;;6.34;57.93;101271.77;1906295;74;21032;-60
2023/02/02 14:17:18;;;;;;;15.32;5.03;;;;;;;6.28;58.13;101273.17;1906451;75;21024;-59
2023/02/02 14:19:54;;;;;;;18.23;4.85;;;;;;;6.19;58.37;101275.45;1906474;75;21097;-59
2023/02/02 14:22:41;;;;;;;16.37;5.50;;;;;;;6.13;58.53;101277.70;1906502;74;21056;-60
2023/02/02 14:25:32;;;;;;;23.45;6.15;;;;;;;6.09;58.61;101273.84;1890505;75;21040;-58
2023/02/02 14:28:03;;;;;;;18.75;6.08;;;;;;;6.07;58.68;101272.55;1906586;75;21396;-59
2023/02/02 14:30:34;;;;;;;16.90;5.95;;;;;;;6.04;58.60;101273.89;1906367;75;21023;-60
2023/02/02 14:33:24;;;;;;;12.88;5.22;;;;;;;5.98;58.64;101272.66;1906566;74;21103;-60
2023/02/02 14:35:56;;;;;;;14.70;5.85;;;;;;;5.91;58.78;101279.66;1906451;75;21059;-58
2023/02/02 14:38:43;;;;;;;15.50;5.58;;;;;;;5.85;58.91;101280.19;1906411;75;21115;-58
2023/02/02 14:43:43;;;;;;;16.27;6.83;;;;;;;5.78;59.06;101283.30;1906357;75;21055;-58
2023/02/02 14:43:52;;;;;;;15.40;6.67;;;;;;;5.76;59.19;101285.92;1908658;74;21043;-59
2023/02/02 14:46:35;;;;;;;18.95;6.22;;;;;;;5.70;59.38;101283.38;1906593;75;21051;-59
2023/02/02 14:49:07;;;;;;;19.85;5.80;;;;;;;5.73;59.36;101278.11;1916189;74;21148;-59
2023/02/02 14:51:38;;;;;;;26.68;6.70;;;;;;;5.79;59.17;101293.73;1928645;74;21039;-59
2023/02/02 14:54:09;;;;;;;23.57;7.97;;;;;;;5.82;59.05;101291.97;1928238;73;21008;-59
2023/02/02 14:56:48;;;;;;;27.75;8.43;;;;;;;5.82;59.01;101294.14;1928004;74;21027;-59
2023/02/02 14:59:31;;;;;;;18.50;7.10;;;;;;;5.79;59.02;101291.13;1928810;74;21110;-60
2023/02/02 15:02:09;;;;;;;15.28;5.95;;;;;;;5.77;59.01;101294.20;1928314;74;21035;-60
2023/02/02 15:04:38;;;;;;;23.18;6.33;;;;;;;5.72;58.93;101298.60;1928968;74;21050;-59
2023/02/02 15:07:25;;;;;;;15.45;5.00;;;;;;;5.70;59.00;101302.98;1928788;74;21040;-60
2023/02/02 15:09:55;;;;;;;17.60;5.72;;;;;;;5.67;59.04;101305.61;1831163;74;21113;-60
2023/02/02 15:12:36;;;;;;;20.37;6.85;;;;;;;5.60;59.30;101309.16;1928766;74;21058;-60
2023/02/02 15:15:13;;;;;;;28.12;4.60;;;;;;;5.53;59.62;101319.23;1928890;74;21031;-58
2023/02/02 15:17:56;;;;;;;17.52;7.67;;;;;;;5.48;59.73;101314.48;1928917;74;21093;-60
2023/02/02 15:20:31;;;;;;;18.87;7.45;;;;;;;5.46;59.84;101324.97;1880561;74;21043;-59
2023/02/02 15:23:05;;;;;;;20.00;8.88;;;;;;;5.36;60.09;101325.91;1928697;74;21167;-58
2023/02/02 15:25:42;;;;;;;25.15;9.60;;;;;;;5.31;60.52;101322.05;1928900;74;21070;-58
2023/02/02 15:28:13;;;;;;;23.55;8.53;;;;;;;5.26;60.67;101323.82;1928783;74;21112;-60
2023/02/02 15:30:45;;;;;;;24.12;8.93;;;;;;;5.23;60.86;101328.61;1928770;74;21046;-58
2023/02/02 15:33:26;;;;;;;19.15;7.87;;;;;;;5.27;60.87;101328.15;1928656;74;21027;-58
2023/02/02 15:35:57;;;;;;;13.08;5.03;;;;;;;5.31;60.91;101331.19;1929044;73;21023;-59
2023/02/02 15:38:29;;;;;;;18.17;6.78;;;;;;;5.33;60.86;101333.76;1928750;74;20999;-59
2023/02/02 15:40:58;;;;;;;14.47;6.30;;;;;;;5.26;61.19;101336.88;1928667;74;21031;-59
2023/02/02 15:43:29;;;;;;;11.33;5.62;;;;;;;5.22;61.35;101336.48;1928665;74;21117;-60
2023/02/02 15:46:06;;;;;;;8.78;3.02;;;;;;;5.22;61.46;101343.01;1928789;74;21093;-59
2023/02/02 15:48:35;;;;;;;3.42;1.72;;;;;;;5.14;62.33;101352.62;1928701;74;21035;-59
2023/02/02 15:51:06;;;;;;;2.75;1.20;;;;;;;4.94;62.95;101349.72;1906889;74;21047;-60
2023/02/02 15:53:47;;;;;;;1.52;0.88;;;;;;;4.91;62.95;101358.86;1905862;74;21471;-60
2023/02/02 15:56:30;;;;;;;1.40;0.95;;;;;;;4.84;63.32;101357.16;1906420;75;21414;-60
2023/02/02 15:59:00;;;;;;;2.10;0.98;;;;;;;4.72;63.37;101351.58;1906338;75;21032;-59
2023/02/02 16:01:32;;;;;;;1.12;0.55;;;;;;;4.64;63.42;101358.11;1906508;75;21008;-60
2023/02/02 16:04:20;;;;;;;1.67;0.95;;;;;;;4.53;63.75;101362.95;1906404;75;21102;-59
2023/02/02 16:06:49;;;;;;;1.62;0.85;;;;;;;4.43;64.23;101366.05;1906341;75;21098;-60
2023/02/02 16:09:21;;;;;;;1.52;0.78;;;;;;;4.43;63.97;101369.52;1906500;75;21094;-59
2023/02/02 16:11:51;;;;;;;3.05;0.98;;;;;;;4.45;63.89;101374.73;1906441;74;21028;-58
2023/02/02 16:14:20;;;;;;;1.57;0.75;;;;;;;4.43;64.02;101376.03;1906297;75;21032;-58
2023/02/02 16:16:49;;;;;;;1.75;0.80;;;;;;;4.40;64.03;101372.12;1906469;74;21490;-60
2023/02/02 16:19:25;;;;;;;1.82;0.93;;;;;;;4.42;63.89;101376.03;1906382;75;21024;-59
2023/02/02 16:21:59;;;;;;;1.25;0.70;;;;;;;4.37;64.03;101379.97;1906487;74;21631;-59
2023/02/02 16:24:38;;;;;;;3.17;0.80;;;;;;;4.33;64.10;101373.00;1906402;75;21106;-59
2023/02/02 16:27:09;;;;;;;1.35;1.02;;;;;;;4.28;64.23;101381.30;1905852;74;21548;-59
2023/02/02 16:29:40;;;;;;;0.60;0.57;;;;;;;4.30;64.18;101379.56;1906410;74;21102;-58
2023/02/02 16:32:12;;;;;;;0.72;0.57;;;;;;;4.19;65.01;101376.11;1906429;75;21032;-59
2023/02/02 16:34:44;;;;;;;1.95;0.80;;;;;;;4.14;64.89;101377.41;1889963;74;21044;-58
2023/02/02 16:37:16;;;;;;;2.83;1.10;;;;;;;4.17;64.84;101372.61;1906780;75;21470;-58
2023/02/02 16:39:44;;;;;;;1.10;0.80;;;;;;;4.17;64.76;101376.52;1905010;74;21032;-59
2023/02/02 16:42:32;;;;;;;1.70;1.05;;;;;;;4.14;64.73;101377.86;1906529;74;21004;-59
2023/02/02 16:45:01;;;;;;;0.50;0.50;;;;;;;4.09;64.74;101385.67;1906637;74;21496;-59
2023/02/02 16:47:32;;;;;;;1.30;0.80;;;;;;;4.08;64.56;101380.04;1906423;75;21008;-59
2023/02/02 16:50:19;;;;;;;1.87;0.62;;;;;;;3.99;64.56;101382.66;1911721;74;21039;-60
2023/02/02 16:53:03;;;;;;;1.45;0.80;;;;;;;3.81;64.85;101379.64;1928693;74;21051;-59
2023/02/02 16:55:34;;;;;;;1.32;0.75;;;;;;;3.67;65.24;101385.73;1928531;74;21015;-59
2023/02/02 16:58:03;;;;;;;1.75;0.82;;;;;;;3.64;65.24;101381.81;1928808;74;21023;-59
2023/02/02 17:00:32;;;;;;;1.30;0.72;;;;;;;3.59;65.45;101392.66;1928619;74;21004;-60
2023/02/02 17:03:04;;;;;;;1.45;0.90;;;;;;;3.47;65.78;101390.07;1928780;74;21074;-59
2023/02/02 17:05:35;;;;;;;1.00;0.75;;;;;;;3.37;65.97;101389.17;1928924;74;20987;-59
2023/02/02 17:08:06;;;;;;;1.50;0.80;;;;;;;3.32;66.05;101392.23;1927815;74;21565;-60
2023/02/02 17:10:41;;;;;;;1.32;0.80;;;;;;;3.27;66.09;101388.74;1928689;74;21148;-59
2023/02/02 17:13:35;;;;;;;2.35;0.90;;;;;;;3.20;66.15;101393.06;1928626;74;21019;-59
2023/02/02 17:16:04;;;;;;;0.95;0.70;;;;;;;3.18;66.16;101396.53;1826165;78;21630;-60
2023/02/02 17:18:33;;;;;;;1.27;0.85;;;;;;;3.14;66.16;101397.40;1825972;78;21070;-60
2023/02/02 17:21:07;;;;;;;0.70;0.70;;;;;;;3.09;66.23;101395.63;1867285;74;21011;-60
2023/02/02 17:23:35;;;;;;;1.52;0.70;;;;;;;3.05;66.29;101398.23;1926961;74;21039;-60
2023/02/02 17:26:05;;;;;;;1.37;0.80;;;;;;;3.00;66.43;101393.01;1928812;74;21516;-60
2023/02/02 17:28:34;;;;;;;1.85;0.70;;;;;;;2.93;66.59;101391.69;1928688;74;21035;-60
2023/02/02 17:31:08;;;;;;;2.50;1.40;;;;;;;2.89;66.65;101399.47;1928817;74;21108;-60
2023/02/02 17:33:37;;;;;;;7.22;2.02;;;;;;;2.86;66.71;101394.73;1928688;74;21031;-60
2023/02/02 17:36:08;;;;;;;1.42;0.95;;;;;;;2.86;66.66;101397.33;1928603;74;21165;-60